Time;durP1;ratioP1;P1;durP2;ratioP2;P2;SDS_P1;SDS_P2;PMS_P1;PMS_P2;Temp;Humidity;BMP_temperature;BMP_pressure;BME280_temperature;BME280_humidity;BME280_pressure;Samples;Min_cycle;Max_cycle;Signal;HPM_P1;HPM_P2
2022/03/17 00:00:55;;;;;;;32.60;17.88;;;11.30;84.50;;;;;;4992579;28;25082;-70
2022/03/17 00:03:21;;;;;;;28.50;17.05;;;11.30;85.10;;;;;;4998494;28;25058;-70
2022/03/17 00:05:47;;;;;;;26.08;18.52;;;11.20;85.40;;;;;;5005229;28;25079;-68
2022/03/17 00:08:14;;;;;;;33.22;18.80;;;11.20;85.70;;;;;;5008093;28;25068;-71
2022/03/17 00:10:39;;;;;;;26.75;18.08;;;11.30;86.20;;;;;;5023571;28;25079;-72
2022/03/17 00:13:05;;;;;;;30.55;18.30;;;11.30;85.80;;;;;;5030532;28;25097;-71
2022/03/17 00:15:59;;;;;;;28.95;18.25;;;11.30;86.00;;;;;;5018812;28;25074;-71
2022/03/17 00:18:25;;;;;;;32.40;17.35;;;11.40;86.10;;;;;;5022668;28;25103;-70
2022/03/17 00:20:51;;;;;;;32.53;17.88;;;11.50;85.90;;;;;;5027721;28;25061;-71
2022/03/17 00:23:17;;;;;;;24.27;18.83;;;11.50;85.20;;;;;;5028356;28;25117;-72
2022/03/17 00:25:45;;;;;;;29.70;18.52;;;11.50;84.90;;;;;;5020917;28;25073;-67
2022/03/17 00:28:12;;;;;;;30.67;20.05;;;11.40;85.60;;;;;;5015421;28;25074;-68
2022/03/17 00:30:38;;;;;;;31.48;19.60;;;11.40;86.10;;;;;;5012588;28;25052;-68
2022/03/17 00:33:03;;;;;;;26.27;19.02;;;11.40;86.60;;;;;;5008928;28;25065;-68
2022/03/17 00:35:35;;;;;;;29.50;20.40;;;11.40;86.80;;;;;;5007962;28;25090;-69
2022/03/17 00:38:21;;;;;;;33.80;19.75;;;11.40;86.90;;;;;;5016565;28;25172;-74
2022/03/17 00:40:47;;;;;;;25.83;18.27;;;11.50;86.90;;;;;;5014903;28;25058;-71
2022/03/17 00:43:14;;;;;;;31.17;19.48;;;11.40;86.50;;;;;;5005022;28;25076;-69
2022/03/17 00:45:42;;;;;;;32.95;19.55;;;11.50;87.00;;;;;;5003614;28;25057;-71
2022/03/17 00:48:08;;;;;;;30.08;19.48;;;11.50;86.80;;;;;;5005044;28;25062;-67
2022/03/17 00:50:34;;;;;;;33.05;21.40;;;11.50;86.70;;;;;;5005295;28;25068;-73
2022/03/17 00:53:00;;;;;;;30.08;20.10;;;11.50;86.80;;;;;;5003901;28;25097;-71
2022/03/17 00:55:26;;;;;;;31.90;20.58;;;11.50;86.80;;;;;;5017143;23;25058;-65
2022/03/17 00:57:52;;;;;;;34.13;20.23;;;11.60;87.00;;;;;;5025948;28;25156;-65
2022/03/17 01:00:20;;;;;;;33.80;20.25;;;11.60;86.40;;;;;;5025810;28;25083;-65
2022/03/17 01:02:48;;;;;;;33.42;21.00;;;11.60;86.40;;;;;;5019780;28;25059;-66
2022/03/17 01:05:15;;;;;;;30.13;20.13;;;11.60;86.20;;;;;;5025478;28;25068;-66
2022/03/17 01:07:41;;;;;;;29.88;20.00;;;11.60;86.30;;;;;;5015308;23;25070;-67
2022/03/17 01:10:10;;;;;;;30.20;19.48;;;11.60;87.10;;;;;;4988521;28;27216;-69
2022/03/17 01:12:35;;;;;;;30.35;21.00;;;11.60;87.50;;;;;;4984551;28;25083;-70
2022/03/17 01:15:03;;;;;;;32.22;21.67;;;11.60;87.70;;;;;;4985714;28;25087;-67
2022/03/17 01:17:29;;;;;;;38.35;22.30;;;11.60;88.00;;;;;;4988854;28;25082;-68
2022/03/17 01:19:55;;;;;;;35.58;21.52;;;11.70;87.80;;;;;;4984837;28;25088;-69
2022/03/17 01:22:23;;;;;;;36.22;23.83;;;11.70;87.60;;;;;;4984352;28;25057;-70
2022/03/17 01:24:51;;;;;;;35.13;22.33;;;11.70;87.50;;;;;;4983455;28;25063;-71
2022/03/17 01:27:20;;;;;;;34.90;24.25;;;11.80;88.30;;;;;;4988649;28;25062;-68
2022/03/17 01:29:49;;;;;;;32.55;23.30;;;11.80;88.10;;;;;;4987600;28;25181;-70
2022/03/17 01:32:15;;;;;;;33.25;23.02;;;11.80;88.70;;;;;;4980042;28;25177;-69
2022/03/17 01:34:41;;;;;;;35.22;24.58;;;11.80;89.60;;;;;;4965318;28;25080;-68
2022/03/17 01:37:07;;;;;;;40.30;24.58;;;11.90;90.20;;;;;;4980655;28;25112;-68
2022/03/17 01:39:32;;;;;;;42.00;26.13;;;11.90;90.50;;;;;;4985026;28;25063;-69
2022/03/17 01:41:59;;;;;;;41.75;27.77;;;11.80;90.90;;;;;;4998341;28;25065;-70
2022/03/17 01:44:25;;;;;;;39.58;28.73;;;11.80;91.40;;;;;;5006106;28;25058;-71
2022/03/17 01:49:40;;;;;;;47.72;32.20;;;11.70;94.00;;;;;;4988250;28;25115;-71
2022/03/17 01:52:06;;;;;;;53.63;34.28;;;11.70;95.00;;;;;;4986344;28;25158;-71
2022/03/17 01:54:32;;;;;;;56.25;33.58;;;11.70;96.10;;;;;;5012385;28;25098;-71
2022/03/17 01:57:22;;;;;;;46.97;30.73;;;11.70;97.10;;;;;;5006968;28;25085;-70
2022/03/17 01:59:49;;;;;;;42.40;26.75;;;11.50;99.10;;;;;;4997601;28;25047;-69
2022/03/17 02:02:14;;;;;;;25.88;19.33;;;11.30;99.90;;;;;;4981579;28;25085;-71
2022/03/17 02:04:41;;;;;;;29.95;21.15;;;11.00;99.90;;;;;;5009312;28;25120;-72
2022/03/17 02:07:08;;;;;;;29.27;19.88;;;10.80;99.90;;;;;;4991980;28;25072;-71
2022/03/17 02:09:35;;;;;;;27.95;20.10;;;10.60;99.90;;;;;;4987338;28;25189;-71
2022/03/17 02:14:50;;;;;;;32.70;22.95;;;10.40;99.90;;;;;;4969486;28;25170;-69
2022/03/17 02:17:16;;;;;;;35.55;24.63;;;10.30;99.90;;;;;;4998060;28;25075;-70
2022/03/17 02:19:42;;;;;;;38.20;25.63;;;10.20;99.90;;;;;;4987894;28;25112;-71
2022/03/17 02:22:14;;;;;;;39.30;25.95;;;10.10;99.90;;;;;;4986685;28;25143;-70
2022/03/17 02:27:29;;;;;;;48.20;29.65;;;10.10;99.90;;;;;;4987880;28;25071;-70
2022/03/17 02:29:55;;;;;;;47.85;29.73;;;10.10;99.90;;;;;;4986487;28;25061;-69
2022/03/17 02:32:21;;;;;;;46.83;30.95;;;10.10;99.90;;;;;;4980076;28;25068;-73
2022/03/17 02:34:47;;;;;;;56.72;38.75;;;10.00;99.90;;;;;;4985447;28;25076;-71
2022/03/17 02:37:15;;;;;;;42.38;28.95;;;9.90;99.90;;;;;;4986184;28;25123;-71
2022/03/17 02:39:41;;;;;;;36.58;23.30;;;9.70;99.90;;;;;;4987740;28;25047;-70
2022/03/17 02:42:06;;;;;;;20.92;15.32;;;9.50;99.90;;;;;;4987225;28;25054;-70
2022/03/17 02:44:32;;;;;;;18.25;13.45;;;9.30;99.90;;;;;;4986396;28;25064;-70
2022/03/17 02:46:58;;;;;;;20.92;13.10;;;9.20;99.90;;;;;;4987102;28;25106;-72
2022/03/17 02:49:24;;;;;;;23.30;12.70;;;9.10;99.90;;;;;;4986495;28;25073;-71
2022/03/17 02:51:50;;;;;;;18.77;12.45;;;9.10;99.90;;;;;;4986415;28;25095;-70
2022/03/17 02:54:15;;;;;;;19.83;12.93;;;9.10;99.90;;;;;;4988005;28;25092;-69
2022/03/17 02:56:41;;;;;;;23.42;15.10;;;9.10;99.90;;;;;;4997126;28;25087;-69
2022/03/17 02:59:07;;;;;;;27.05;15.63;;;9.00;99.90;;;;;;4993109;28;25073;-69
2022/03/17 03:01:32;;;;;;;23.20;16.35;;;9.00;99.90;;;;;;4987144;28;25093;-69
2022/03/17 03:03:58;;;;;;;28.48;19.48;;;9.00;99.90;;;;;;4987777;28;25070;-70
2022/03/17 03:06:24;;;;;;;33.90;20.60;;;9.00;99.90;;;;;;4989203;28;25117;-69
2022/03/17 03:08:49;;;;;;;34.35;21.33;;;9.00;99.90;;;;;;4989612;28;25099;-69
2022/03/17 03:11:15;;;;;;;36.65;20.20;;;9.00;99.90;;;;;;4987883;28;25125;-69
2022/03/17 03:13:40;;;;;;;38.90;22.42;;;9.00;99.90;;;;;;4989911;28;25068;-68
2022/03/17 03:16:06;;;;;;;45.53;24.80;;;9.00;99.90;;;;;;4988858;28;25056;-69
2022/03/17 03:18:32;;;;;;;41.58;23.90;;;9.00;99.90;;;;;;4991273;28;25067;-69
2022/03/17 03:20:57;;;;;;;45.33;26.38;;;9.00;99.90;;;;;;4995692;28;25141;-71
2022/03/17 03:23:23;;;;;;;51.75;28.23;;;9.00;99.90;;;;;;4991783;28;25046;-69
2022/03/17 03:25:48;;;;;;;50.78;28.77;;;8.90;99.90;;;;;;4987784;28;25083;-69
2022/03/17 03:28:14;;;;;;;51.03;28.65;;;8.90;99.90;;;;;;4988144;28;25104;-70
2022/03/17 03:30:47;;;;;;;43.17;24.52;;;8.90;99.90;;;;;;4987548;28;25058;-70
2022/03/17 03:33:13;;;;;;;50.75;23.20;;;8.80;99.90;;;;;;4986863;28;25067;-69
2022/03/17 03:38:23;;;;;;;33.35;14.20;;;8.60;99.90;;;;;;4990433;28;25183;-70
2022/03/17 03:40:48;;;;;;;33.03;12.55;;;8.50;99.90;;;;;;4988740;28;25070;-70
2022/03/17 03:43:14;;;;;;;26.65;11.43;;;8.40;99.90;;;;;;4984970;28;25112;-69
2022/03/17 03:45:39;;;;;;;26.90;8.65;;;8.40;99.90;;;;;;4987258;28;25134;-71
2022/03/17 03:48:05;;;;;;;28.33;8.80;;;8.30;99.90;;;;;;4988541;28;25123;-69
2022/03/17 03:50:31;;;;;;;31.42;8.32;;;8.30;99.90;;;;;;4987460;28;25099;-70
2022/03/17 03:52:57;;;;;;;23.15;8.18;;;8.40;99.90;;;;;;4989823;28;25058;-68
2022/03/17 03:55:23;;;;;;;28.30;7.68;;;8.40;99.90;;;;;;4983927;28;25066;-70
2022/03/17 03:57:49;;;;;;;21.73;6.10;;;8.30;99.90;;;;;;4988007;28;25062;-70
2022/03/17 04:00:36;;;;;;;20.80;5.43;;;8.20;99.70;;;;;;4986114;28;25150;-69
2022/03/17 04:03:04;;;;;;;19.55;5.78;;;8.20;99.30;;;;;;4985570;28;25120;-70
2022/03/17 04:05:34;;;;;;;21.17;4.45;;;8.20;98.10;;;;;;4986000;28;25100;-71
2022/03/17 04:07:59;;;;;;;29.02;5.10;;;8.20;97.50;;;;;;4985836;28;25146;-73
2022/03/17 04:10:26;;;;;;;21.40;4.43;;;8.20;96.80;;;;;;4986601;28;25073;-70
2022/03/17 04:12:52;;;;;;;22.67;4.22;;;8.20;96.60;;;;;;4985145;28;25075;-71
2022/03/17 04:15:18;;;;;;;20.38;4.00;;;8.20;96.30;;;;;;4989503;28;25055;-70
2022/03/17 04:17:43;;;;;;;23.80;3.95;;;8.20;94.90;;;;;;4995177;28;25170;-70
2022/03/17 04:20:10;;;;;;;17.05;3.45;;;8.20;94.70;;;;;;4986086;28;25164;-70
2022/03/17 04:22:37;;;;;;;13.77;3.53;;;8.20;94.40;;;;;;4986432;28;25060;-70
2022/03/17 04:25:03;;;;;;;17.25;3.15;;;8.20;94.20;;;;;;4985965;28;25056;-71
2022/03/17 04:27:29;;;;;;;16.33;3.42;;;8.20;94.10;;;;;;4986630;28;25062;-69
2022/03/17 04:29:55;;;;;;;16.13;3.60;;;8.20;94.10;;;;;;4989446;28;25088;-70
2022/03/17 04:32:21;;;;;;;19.25;3.17;;;8.20;93.80;;;;;;4987803;28;25123;-70
2022/03/17 04:34:47;;;;;;;21.65;3.55;;;8.20;93.90;;;;;;4981452;28;25063;-71
2022/03/17 04:37:13;;;;;;;18.75;3.17;;;8.20;93.50;;;;;;4984770;28;25071;-69
2022/03/17 04:39:39;;;;;;;21.25;4.82;;;8.20;93.40;;;;;;4986347;28;25062;-70
2022/03/17 04:42:05;;;;;;;18.98;3.67;;;8.20;93.30;;;;;;4986629;28;25059;-70
2022/03/17 04:44:31;;;;;;;19.35;4.13;;;8.20;93.10;;;;;;4988104;28;25148;-69
2022/03/17 04:46:57;;;;;;;17.10;3.28;;;8.20;93.40;;;;;;4983496;28;25095;-70
2022/03/17 04:49:23;;;;;;;12.38;2.90;;;8.20;92.90;;;;;;4986535;28;25063;-70
2022/03/17 04:51:48;;;;;;;15.10;2.90;;;8.10;91.70;;;;;;4989091;28;25179;-69
2022/03/17 04:54:14;;;;;;;11.65;2.70;;;8.10;91.60;;;;;;4988378;28;25098;-71
2022/03/17 04:56:39;;;;;;;14.77;3.15;;;8.20;91.90;;;;;;4988674;28;25072;-70
2022/03/17 04:59:05;;;;;;;15.63;3.97;;;8.20;91.50;;;;;;4989345;28;25070;-70
2022/03/17 05:01:31;;;;;;;17.52;2.83;;;8.20;91.60;;;;;;4988535;28;25138;-70
2022/03/17 05:03:56;;;;;;;12.77;2.85;;;8.10;91.40;;;;;;4976493;28;25084;-71
2022/03/17 05:06:22;;;;;;;17.63;2.80;;;8.10;91.70;;;;;;4992216;28;25116;-69
2022/03/17 05:08:48;;;;;;;10.63;2.33;;;8.10;91.60;;;;;;4987261;28;25070;-71
2022/03/17 05:11:14;;;;;;;8.50;2.30;;;8.10;91.80;;;;;;4987662;28;25085;-71
2022/03/17 05:13:39;;;;;;;9.68;2.33;;;8.10;91.00;;;;;;4990026;28;25066;-71
2022/03/17 05:16:06;;;;;;;10.63;2.08;;;8.10;90.70;;;;;;4986216;28;25098;-69
2022/03/17 05:18:33;;;;;;;12.65;2.47;;;8.00;90.70;;;;;;4985098;28;25078;-70
2022/03/17 05:20:58;;;;;;;10.13;1.92;;;8.10;90.90;;;;;;4985621;28;25056;-70
2022/03/17 05:23:24;;;;;;;16.08;2.15;;;8.00;90.20;;;;;;4989539;28;25105;-70
2022/03/17 05:25:51;;;;;;;10.75;2.10;;;8.00;90.30;;;;;;4987449;28;25123;-70
2022/03/17 05:28:17;;;;;;;10.00;2.75;;;8.00;90.10;;;;;;4992472;28;25070;-73
2022/03/17 05:30:44;;;;;;;9.23;2.33;;;8.00;90.10;;;;;;4987175;28;25100;-71
2022/03/17 05:33:11;;;;;;;14.60;2.33;;;8.00;90.10;;;;;;4974230;28;25140;-70
2022/03/17 05:35:38;;;;;;;16.98;2.50;;;8.00;89.80;;;;;;4986210;28;25110;-70
2022/03/17 05:38:05;;;;;;;17.23;3.08;;;8.00;89.40;;;;;;4987214;28;25067;-70
2022/03/17 05:40:30;;;;;;;15.88;2.22;;;8.00;89.10;;;;;;4982520;28;25073;-72
2022/03/17 05:43:00;;;;;;;18.15;2.85;;;8.00;89.20;;;;;;4990014;28;25145;-70
2022/03/17 05:45:28;;;;;;;8.90;2.95;;;8.00;89.60;;;;;;4989429;28;25068;-69
2022/03/17 05:47:59;;;;;;;12.60;2.13;;;7.90;89.20;;;;;;4979970;28;25061;-70
2022/03/17 05:50:28;;;;;;;11.70;2.65;;;8.00;89.50;;;;;;4984532;28;25057;-69
2022/03/17 05:52:54;;;;;;;13.32;2.60;;;7.90;88.70;;;;;;4986243;28;25227;-70
2022/03/17 05:55:23;;;;;;;11.32;2.13;;;7.90;89.40;;;;;;4988741;28;25064;-70
2022/03/17 05:57:57;;;;;;;11.20;2.83;;;7.90;89.00;;;;;;4997528;28;25071;-70
2022/03/17 06:00:25;;;;;;;12.07;2.40;;;7.90;87.90;;;;;;4993273;28;25167;-70
2022/03/17 06:02:51;;;;;;;7.47;2.08;;;7.90;87.50;;;;;;4997667;28;25116;-69
2022/03/17 06:05:17;;;;;;;9.55;2.25;;;7.90;87.50;;;;;;5005650;28;25090;-69
2022/03/17 06:07:44;;;;;;;12.15;2.63;;;8.00;87.50;;;;;;4993947;28;25109;-68
2022/03/17 06:10:15;;;;;;;15.77;2.92;;;7.90;88.70;;;;;;4995536;28;25048;-68
2022/03/17 06:12:41;;;;;;;18.83;2.78;;;7.90;89.90;;;;;;4997126;28;25052;-67
2022/03/17 06:15:08;;;;;;;21.35;2.88;;;7.80;90.30;;;;;;5001794;28;25053;-69
2022/03/17 06:17:37;;;;;;;18.20;2.95;;;7.80;90.70;;;;;;4987485;28;25055;-69
2022/03/17 06:20:04;;;;;;;13.00;2.78;;;7.80;90.40;;;;;;4998959;28;25080;-68
2022/03/17 06:22:29;;;;;;;15.07;2.65;;;7.80;90.20;;;;;;4985380;28;25074;-68
2022/03/17 06:24:55;;;;;;;18.83;3.38;;;7.80;89.80;;;;;;4989670;28;25051;-70
2022/03/17 06:27:24;;;;;;;14.68;2.83;;;7.90;89.40;;;;;;4991623;28;25163;-68
2022/03/17 06:29:50;;;;;;;16.35;2.55;;;7.90;88.40;;;;;;5000481;28;25061;-67
2022/03/17 06:32:15;;;;;;;14.88;2.85;;;7.90;87.60;;;;;;4993002;28;25124;-68
2022/03/17 06:34:41;;;;;;;14.68;3.05;;;7.90;86.90;;;;;;4990746;28;25066;-67
2022/03/17 06:37:06;;;;;;;15.50;2.78;;;8.00;86.10;;;;;;4983243;28;25081;-67
2022/03/17 06:39:32;;;;;;;15.05;2.53;;;8.00;85.40;;;;;;4979183;28;25078;-69
2022/03/17 06:41:57;;;;;;;23.05;3.30;;;8.00;85.20;;;;;;4979735;28;25073;-69
2022/03/17 06:44:23;;;;;;;15.98;3.00;;;8.00;85.30;;;;;;4990771;28;25096;-69
2022/03/17 06:46:48;;;;;;;14.77;3.33;;;8.00;85.10;;;;;;4988447;28;25108;-72
2022/03/17 06:49:14;;;;;;;14.80;2.15;;;8.00;83.50;;;;;;4988138;28;25067;-72
2022/03/17 06:51:39;;;;;;;16.45;2.20;;;8.00;82.90;;;;;;4988537;28;25074;-71
2022/03/17 06:54:05;;;;;;;12.55;2.47;;;8.10;83.40;;;;;;4988859;28;25060;-72
2022/03/17 06:56:31;;;;;;;18.73;3.38;;;8.10;83.30;;;;;;4988958;28;25151;-71
2022/03/17 06:58:56;;;;;;;19.75;2.88;;;8.00;83.20;;;;;;4990536;28;25151;-70
2022/03/17 07:01:22;;;;;;;19.08;2.83;;;8.00;84.30;;;;;;4989774;28;25061;-73
2022/03/17 07:03:48;;;;;;;28.67;3.70;;;8.00;84.60;;;;;;4988028;28;25148;-68
2022/03/17 07:06:13;;;;;;;20.50;3.88;;;8.00;85.40;;;;;;4987614;28;25090;-70
2022/03/17 07:08:39;;;;;;;18.02;2.95;;;8.00;85.60;;;;;;4987097;28;25090;-70
2022/03/17 07:11:04;;;;;;;15.30;2.63;;;8.00;86.40;;;;;;4988555;28;25072;-71
2022/03/17 07:13:30;;;;;;;20.25;3.97;;;8.00;87.20;;;;;;4988791;28;25067;-69
2022/03/17 07:15:55;;;;;;;15.90;2.78;;;8.00;88.50;;;;;;4996931;28;25065;-70
2022/03/17 07:18:21;;;;;;;22.02;3.22;;;8.00;89.30;;;;;;5007394;28;25070;-70
2022/03/17 07:20:47;;;;;;;16.30;2.85;;;8.00;89.30;;;;;;5007334;28;25078;-70
2022/03/17 07:23:12;;;;;;;19.13;3.45;;;8.00;89.10;;;;;;5006417;28;25082;-71
2022/03/17 07:25:38;;;;;;;22.90;3.25;;;8.00;89.10;;;;;;5007034;28;25072;-72
2022/03/17 07:28:04;;;;;;;14.20;3.45;;;8.00;88.70;;;;;;5007602;28;25107;-69
2022/03/17 07:30:31;;;;;;;17.75;3.53;;;8.10;88.80;;;;;;5006414;28;25105;-70
2022/03/17 07:32:59;;;;;;;18.80;3.08;;;8.10;88.00;;;;;;4981905;28;25475;-70
2022/03/17 07:35:29;;;;;;;11.63;2.78;;;8.10;84.20;;;;;;4968833;28;25080;-70
2022/03/17 07:37:56;;;;;;;16.10;2.95;;;8.10;82.90;;;;;;4966797;28;25096;-71
2022/03/17 07:40:22;;;;;;;18.48;3.08;;;8.10;81.90;;;;;;4966716;28;25081;-69
2022/03/17 07:42:48;;;;;;;17.40;2.75;;;8.10;82.20;;;;;;4966418;28;25056;-70
2022/03/17 07:45:13;;;;;;;13.95;3.15;;;8.10;79.40;;;;;;4967666;28;25075;-69
2022/03/17 07:47:49;;;;;;;11.20;3.42;;;8.10;79.40;;;;;;4968975;28;25060;-68
2022/03/17 07:50:15;;;;;;;15.65;3.33;;;8.10;78.70;;;;;;4968717;28;25057;-73
2022/03/17 07:52:41;;;;;;;23.30;3.67;;;8.20;78.30;;;;;;4967952;28;25135;-71
2022/03/17 07:55:07;;;;;;;13.55;2.58;;;8.20;78.00;;;;;;4975787;28;25085;-69
2022/03/17 07:57:35;;;;;;;13.80;2.50;;;8.20;77.40;;;;;;4968145;28;25126;-69
2022/03/17 08:00:02;;;;;;;14.27;2.45;;;8.20;77.40;;;;;;4968398;28;25073;-71
2022/03/17 08:02:27;;;;;;;14.98;2.90;;;8.20;76.20;;;;;;4984710;28;25146;-69
2022/03/17 08:04:53;;;;;;;9.82;2.08;;;8.20;74.80;;;;;;5005257;28;25108;-71
2022/03/17 08:07:20;;;;;;;13.52;2.65;;;8.20;74.00;;;;;;5005440;28;25076;-71
2022/03/17 08:09:45;;;;;;;14.27;2.55;;;8.10;73.50;;;;;;5005802;28;25064;-70
2022/03/17 08:12:17;;;;;;;14.90;1.58;;;8.10;74.00;;;;;;5006954;28;25059;-69
2022/03/17 08:14:46;;;;;;;15.98;2.45;;;8.10;74.00;;;;;;5006378;28;25104;-71
2022/03/17 08:17:20;;;;;;;11.25;2.22;;;8.20;73.50;;;;;;5012215;28;25075;-72
2022/03/17 08:19:48;;;;;;;18.25;2.60;;;8.10;72.90;;;;;;5012127;28;25129;-71
2022/03/17 08:22:14;;;;;;;11.00;2.33;;;8.10;71.70;;;;;;5008395;28;25142;-70
2022/03/17 08:24:52;;;;;;;10.85;2.67;;;8.10;71.40;;;;;;5006834;28;25090;-70
2022/03/17 08:27:17;;;;;;;16.50;2.22;;;8.20;72.10;;;;;;5006565;28;25094;-71
2022/03/17 08:29:43;;;;;;;10.55;1.80;;;8.20;72.40;;;;;;5007035;28;25053;-68
2022/03/17 08:32:09;;;;;;;12.40;2.05;;;8.10;71.00;;;;;;5001975;28;25061;-71
2022/03/17 08:34:35;;;;;;;13.55;2.50;;;8.10;71.80;;;;;;4988128;28;25133;-71
2022/03/17 08:37:01;;;;;;;15.88;2.13;;;8.20;72.30;;;;;;4986161;28;25062;-69
2022/03/17 08:39:27;;;;;;;18.05;2.65;;;8.10;71.90;;;;;;4985442;28;25068;-70
2022/03/17 08:41:55;;;;;;;13.20;2.17;;;8.10;72.50;;;;;;4985839;28;25119;-72
2022/03/17 08:44:21;;;;;;;13.60;2.58;;;8.10;73.00;;;;;;4986464;28;25148;-71
2022/03/17 08:49:31;;;;;;;11.70;1.90;;;8.20;74.30;;;;;;4986833;28;25078;-70
2022/03/17 08:51:59;;;;;;;9.65;1.70;;;8.20;73.80;;;;;;4986525;28;25069;-69
2022/03/17 08:54:27;;;;;;;6.65;1.95;;;8.10;72.80;;;;;;4984718;28;25102;-70
2022/03/17 08:56:59;;;;;;;9.98;2.30;;;8.10;72.30;;;;;;4986416;28;25076;-70
2022/03/17 08:59:31;;;;;;;11.93;2.17;;;8.10;72.00;;;;;;4986535;28;25077;-72
2022/03/17 09:02:01;;;;;;;9.65;1.77;;;8.20;72.40;;;;;;4986801;28;25073;-70
2022/03/17 09:04:28;;;;;;;12.20;2.45;;;8.10;71.60;;;;;;4983856;28;25070;-71
2022/03/17 09:06:59;;;;;;;9.20;2.15;;;8.10;72.10;;;;;;4987557;28;25115;-71
2022/03/17 09:09:32;;;;;;;9.68;2.30;;;8.20;71.90;;;;;;4989347;28;25128;-71
2022/03/17 09:12:04;;;;;;;10.90;2.55;;;8.30;71.90;;;;;;4991625;28;25092;-70
2022/03/17 09:14:30;;;;;;;;;;;8.40;72.30;;;;;;4995916;28;25060;-71
2022/03/17 09:16:56;;;;;;;10.52;1.98;;;8.50;70.70;;;;;;5010386;28;25073;-71
2022/03/17 09:19:21;;;;;;;7.85;1.98;;;8.60;70.00;;;;;;5014032;28;25053;-70
2022/03/17 09:21:47;;;;;;;7.45;1.90;;;8.60;69.40;;;;;;5014077;28;25055;-69
2022/03/17 09:24:13;;;;;;;15.20;2.00;;;8.60;68.70;;;;;;5013752;28;25159;-69
2022/03/17 09:26:39;;;;;;;10.07;2.25;;;8.80;68.80;;;;;;5014192;28;25099;-70
2022/03/17 09:29:04;;;;;;;6.80;2.35;;;8.90;68.90;;;;;;5014621;28;25050;-70
2022/03/17 09:31:31;;;;;;;9.52;2.30;;;9.10;67.80;;;;;;5012706;28;25091;-71
2022/03/17 09:33:57;;;;;;;7.50;1.83;;;9.30;67.20;;;;;;4973205;28;25114;-70
2022/03/17 09:36:23;;;;;;;14.02;2.72;;;9.20;64.80;;;;;;4972397;28;25061;-70
2022/03/17 09:39:42;;;;;;;14.98;2.85;;;9.20;65.20;;;;;;4971901;28;25079;-70
2022/03/17 09:41:35;;;;;;;8.95;1.95;;;9.30;63.70;;;;;;4971177;28;25082;-71
2022/03/17 09:44:02;;;;;;;7.38;2.45;;;9.50;62.50;;;;;;4973239;28;25108;-69
2022/03/17 09:46:28;;;;;;;8.05;2.03;;;9.70;62.10;;;;;;4971967;28;25099;-71
2022/03/17 09:48:55;;;;;;;10.20;2.22;;;9.70;61.10;;;;;;4974071;28;25092;-69
2022/03/17 09:51:23;;;;;;;9.45;1.90;;;9.90;61.20;;;;;;4971575;28;25120;-69
2022/03/17 09:53:53;;;;;;;10.38;1.98;;;9.80;58.70;;;;;;4970071;28;25091;-73
2022/03/17 09:56:23;;;;;;;12.27;2.38;;;9.80;59.60;;;;;;4969876;28;25076;-70
2022/03/17 09:58:51;;;;;;;7.97;2.00;;;9.90;59.90;;;;;;4970780;28;25133;-69
2022/03/17 10:01:19;;;;;;;7.82;1.90;;;10.10;60.00;;;;;;4969762;28;25100;-68
2022/03/17 10:03:45;;;;;;;9.35;3.22;;;10.00;57.20;;;;;;4990680;28;25058;-68
2022/03/17 10:06:11;;;;;;;12.85;2.38;;;10.00;57.60;;;;;;4990029;28;25108;-69
2022/03/17 10:08:40;;;;;;;11.70;2.78;;;10.00;55.30;;;;;;4990797;28;25092;-68
2022/03/17 10:11:06;;;;;;;10.93;2.40;;;10.20;57.50;;;;;;4990634;28;25087;-68
2022/03/17 10:13:34;;;;;;;8.55;2.13;;;10.40;56.10;;;;;;4993918;28;25063;-67
2022/03/17 10:16:15;;;;;;;10.05;2.30;;;10.70;56.10;;;;;;5005670;28;25062;-68
2022/03/17 10:18:41;;;;;;;13.43;2.58;;;11.00;53.00;;;;;;5014888;28;25048;-68
2022/03/17 10:21:06;;;;;;;9.55;2.05;;;10.60;54.00;;;;;;5019519;28;25050;-70
2022/03/17 10:23:33;;;;;;;12.15;2.28;;;10.50;56.10;;;;;;5018629;28;25057;-67
2022/03/17 10:25:59;;;;;;;6.47;2.05;;;10.90;54.80;;;;;;5017576;28;25056;-71
2022/03/17 10:28:26;;;;;;;8.85;2.33;;;10.60;52.40;;;;;;5019042;28;25078;-69
2022/03/17 10:31:02;;;;;;;7.03;1.95;;;10.20;53.70;;;;;;5017859;28;25062;-68
2022/03/17 10:33:31;;;;;;;10.15;2.30;;;10.10;54.90;;;;;;4987694;28;25090;-69
2022/03/17 10:36:16;;;;;;;6.57;2.25;;;10.60;55.80;;;;;;4978452;28;25099;-68
2022/03/17 10:38:43;;;;;;;9.30;2.70;;;10.60;51.90;;;;;;4970188;28;25082;-70
2022/03/17 10:41:12;;;;;;;9.30;2.38;;;10.60;50.90;;;;;;4971271;28;25074;-69
2022/03/17 10:43:39;;;;;;;10.90;3.17;;;10.40;51.70;;;;;;4969225;28;25060;-70
2022/03/17 10:46:06;;;;;;;9.23;2.38;;;10.40;52.70;;;;;;4971489;28;25119;-70
2022/03/17 10:48:32;;;;;;;7.90;2.70;;;10.80;52.90;;;;;;4970969;28;25074;-68
2022/03/17 10:50:58;;;;;;;7.63;2.15;;;11.00;51.10;;;;;;4971354;28;25138;-68
2022/03/17 10:53:28;;;;;;;6.18;2.40;;;10.90;50.20;;;;;;4970989;28;25102;-69
2022/03/17 10:56:10;;;;;;;8.02;2.30;;;10.60;48.40;;;;;;4972750;28;25089;-68
2022/03/17 10:58:43;;;;;;;11.80;3.17;;;10.50;48.10;;;;;;4973373;28;25060;-68
2022/03/17 11:01:09;;;;;;;9.57;2.70;;;10.60;48.30;;;;;;4975157;28;25091;-68
2022/03/17 11:03:35;;;;;;;11.27;3.45;;;10.60;49.00;;;;;;4993125;28;25086;-70
2022/03/17 11:06:03;;;;;;;6.65;2.35;;;11.00;48.30;;;;;;4990672;28;25071;-68
2022/03/17 11:08:31;;;;;;;10.93;2.63;;;11.20;49.40;;;;;;4990686;28;25056;-67
2022/03/17 11:10:57;;;;;;;9.68;2.20;;;11.40;47.50;;;;;;4990488;28;25123;-69
2022/03/17 11:13:23;;;;;;;7.03;2.13;;;11.30;47.40;;;;;;4989843;28;25065;-72
2022/03/17 11:16:03;;;;;;;4.53;2.10;;;11.70;45.80;;;;;;4989986;28;25068;-70
2022/03/17 11:18:35;;;;;;;8.85;2.30;;;11.30;46.70;;;;;;4989618;28;25105;-68
2022/03/17 11:21:16;;;;;;;7.72;2.60;;;11.50;46.40;;;;;;4989594;28;25073;-69
2022/03/17 11:24:01;;;;;;;7.60;2.47;;;11.40;47.00;;;;;;4988394;28;25059;-68
2022/03/17 11:26:34;;;;;;;12.82;2.10;;;11.40;47.40;;;;;;4987762;28;25064;-69
2022/03/17 11:29:12;;;;;;;8.55;2.53;;;11.60;45.90;;;;;;4989060;28;25108;-69
2022/03/17 11:31:56;;;;;;;4.18;2.13;;;11.60;45.30;;;;;;4986341;28;25117;-71
2022/03/17 11:34:48;;;;;;;7.68;2.40;;;12.30;43.70;;;;;;4970833;28;25089;-71
2022/03/17 11:37:15;;;;;;;4.78;2.15;;;12.30;42.90;;;;;;4969027;28;25150;-67
2022/03/17 11:40:03;;;;;;;5.78;2.15;;;11.90;43.20;;;;;;4970234;28;25090;-69
2022/03/17 11:42:56;;;;;;;8.70;2.30;;;11.90;41.90;;;;;;4970432;28;25080;-71
2022/03/17 11:45:22;;;;;;;11.10;2.90;;;12.30;43.20;;;;;;4969669;28;25099;-69
2022/03/17 11:47:55;;;;;;;12.82;2.40;;;12.40;39.70;;;;;;4967461;28;25153;-69
2022/03/17 11:50:38;;;;;;;7.18;2.17;;;12.10;41.70;;;;;;4968965;28;25104;-68
2022/03/17 11:53:14;;;;;;;11.52;2.13;;;12.30;40.20;;;;;;4968257;28;25078;-68
2022/03/17 11:55:42;;;;;;;8.63;2.40;;;11.90;41.60;;;;;;4970906;28;25064;-68
2022/03/17 11:58:33;;;;;;;6.07;1.70;;;12.60;39.50;;;;;;4969219;28;25126;-68
2022/03/17 12:01:22;;;;;;;9.35;2.33;;;12.80;36.90;;;;;;4967289;28;25110;-68
2022/03/17 12:03:54;;;;;;;10.30;1.83;;;12.40;36.70;;;;;;4986208;28;25143;-69
2022/03/17 12:06:22;;;;;;;6.88;2.05;;;12.60;38.90;;;;;;4988170;28;25073;-70
2022/03/17 12:09:01;;;;;;;8.00;1.40;;;12.30;34.10;;;;;;4987028;28;25078;-68
2022/03/17 12:11:42;;;;;;;5.18;1.83;;;12.40;35.50;;;;;;4987653;28;25143;-70
2022/03/17 12:14:14;;;;;;;7.47;1.55;;;12.70;37.20;;;;;;4986219;28;25051;-70
2022/03/17 12:16:43;;;;;;;5.22;1.70;;;12.50;33.80;;;;;;5001601;28;25058;-69
2022/03/17 12:19:09;;;;;;;3.35;1.33;;;12.40;32.40;;;;;;5007023;28;25059;-68
2022/03/17 12:22:02;;;;;;;5.85;1.58;;;12.30;31.60;;;;;;5006661;28;25108;-70
2022/03/17 12:24:41;;;;;;;8.23;1.40;;;12.10;31.50;;;;;;5007242;28;25083;-67
2022/03/17 12:27:22;;;;;;;7.07;1.42;;;12.20;32.10;;;;;;5007964;28;25083;-69
2022/03/17 12:29:58;;;;;;;5.78;1.52;;;12.50;32.40;;;;;;5006726;28;25135;-69
2022/03/17 12:32:25;;;;;;;7.53;1.42;;;12.30;30.20;;;;;;4990966;28;25076;-69
2022/03/17 12:34:53;;;;;;;4.43;0.95;;;12.20;29.80;;;;;;4967229;28;25131;-69
2022/03/17 12:37:21;;;;;;;9.98;1.35;;;12.40;28.80;;;;;;4967970;28;25077;-71
2022/03/17 12:39:55;;;;;;;7.65;1.30;;;12.30;27.70;;;;;;4967515;28;25067;-68
2022/03/17 12:42:23;;;;;;;2.78;1.17;;;12.00;29.00;;;;;;4967609;28;25069;-68
2022/03/17 12:44:58;;;;;;;3.28;1.30;;;12.40;29.60;;;;;;4967058;28;25080;-69
2022/03/17 12:47:27;;;;;;;7.63;1.98;;;12.30;27.20;;;;;;4967342;28;25067;-68
2022/03/17 12:49:53;;;;;;;5.75;1.65;;;12.50;26.90;;;;;;4967009;28;25119;-68
2022/03/17 12:52:27;;;;;;;4.63;1.60;;;12.50;26.50;;;;;;4966250;28;25070;-68
2022/03/17 12:54:55;;;;;;;5.75;1.70;;;12.10;26.50;;;;;;4968144;28;25101;-68
2022/03/17 12:57:22;;;;;;;7.35;1.13;;;12.20;27.60;;;;;;4970091;28;25084;-70
2022/03/17 12:59:48;;;;;;;4.55;1.25;;;12.70;28.20;;;;;;4970523;28;25064;-70
2022/03/17 13:02:16;;;;;;;4.82;1.27;;;12.70;24.20;;;;;;4974689;28;25062;-69